createdAt,value
2018-06-10T00:01:13.353Z,101332.73
2018-06-10T00:03:41.684Z,101330.92
2018-06-10T00:06:10.006Z,101331.17
2018-06-10T00:08:38.324Z,101333.89
2018-06-10T00:11:06.644Z,101334.78
2018-06-10T00:13:35.036Z,101335.87
2018-06-10T00:16:03.356Z,101341.05
2018-06-10T00:18:31.664Z,101346.40
2018-06-10T00:20:59.399Z,101347.94
2018-06-10T00:23:28.295Z,101342.43
2018-06-10T00:25:56.607Z,101339.61
2018-06-10T00:28:24.934Z,101335.86
2018-06-10T00:30:53.247Z,101334.02
2018-06-10T00:33:21.561Z,101333.53
2018-06-10T00:35:49.886Z,101326.33
2018-06-10T00:38:18.208Z,101324.16
2018-06-10T00:40:46.519Z,101321.27
2018-06-10T00:43:14.833Z,101321.30
2018-06-10T00:45:43.157Z,101321.64
2018-06-10T00:48:11.484Z,101323.73
2018-06-10T00:50:39.793Z,101320.84
2018-06-10T00:53:08.112Z,101315.84
2018-06-10T00:55:36.426Z,101314.47
2018-06-10T00:58:04.750Z,101316.52
2018-06-10T01:00:33.072Z,101319.89
2018-06-10T01:03:01.373Z,101316.52
2018-06-10T01:05:29.688Z,101313.83
2018-06-10T01:07:58.013Z,101313.39
2018-06-10T01:10:25.759Z,101310.38
2018-06-10T01:12:54.655Z,101304.75
2018-06-10T01:15:22.406Z,101300.82
2018-06-10T01:17:51.307Z,101296.31
2018-06-10T01:20:19.619Z,101295.34
2018-06-10T01:22:47.931Z,101295.44
2018-06-10T01:25:16.254Z,101293.56
2018-06-10T01:27:44.569Z,101293.61
2018-06-10T01:30:12.309Z,101293.22
2018-06-10T01:32:41.205Z,101296.16
2018-06-10T01:35:09.531Z,101297.41
2018-06-10T01:37:37.837Z,101290.83
2018-06-10T01:40:06.160Z,101291.48
2018-06-10T01:42:34.474Z,101294.60
2018-06-10T01:45:02.206Z,101296.56
2018-06-10T01:47:31.104Z,101288.52
2018-06-10T01:49:58.846Z,101288.84
2018-06-10T01:52:27.725Z,101283.07
2018-06-10T01:54:56.642Z,101285.63
2018-06-10T01:57:24.957Z,101289.45
2018-06-10T01:59:53.028Z,101292.05
2018-06-10T02:02:21.610Z,101287.44
2018-06-10T02:04:49.922Z,101284.80
2018-06-10T02:07:18.243Z,101283.73
2018-06-10T02:09:46.552Z,101284.27
2018-06-10T02:12:14.288Z,101280.00
2018-06-10T02:14:43.186Z,101278.33
2018-06-10T02:17:11.499Z,101272.86
2018-06-10T02:19:39.236Z,101271.41
2018-06-10T02:22:08.137Z,101270.14
2018-06-10T02:24:36.493Z,101264.45
2018-06-10T02:27:04.810Z,101265.26
2018-06-10T02:29:33.119Z,101265.73
2018-06-10T02:32:01.438Z,101263.27
2018-06-10T02:34:29.163Z,101261.72
2018-06-10T02:36:57.473Z,101257.74
2018-06-10T02:39:26.415Z,101258.02
2018-06-10T02:41:54.729Z,101257.96
2018-06-10T02:44:23.051Z,101256.69
2018-06-10T02:46:51.359Z,101259.56
2018-06-10T02:49:19.678Z,101259.89
2018-06-10T02:51:47.411Z,101256.55
2018-06-10T02:54:16.306Z,101255.77
2018-06-10T02:56:44.874Z,101257.05
2018-06-10T02:59:12.612Z,101249.22
2018-06-10T03:01:41.512Z,101247.16
2018-06-10T03:04:09.825Z,101252.18
2018-06-10T03:06:38.146Z,101252.17
2018-06-10T03:09:06.465Z,101251.89
2018-06-10T03:11:34.791Z,101256.44
2018-06-10T03:14:03.106Z,101253.59
2018-06-10T03:16:31.433Z,101257.30
2018-06-10T03:18:59.178Z,101252.25
2018-06-10T03:21:28.077Z,101254.34
2018-06-10T03:23:56.398Z,101254.37
2018-06-10T03:26:24.707Z,101255.36
2018-06-10T03:28:53.023Z,101256.91
2018-06-10T03:31:21.349Z,101257.20
2018-06-10T03:33:49.680Z,101253.98
2018-06-10T03:36:17.991Z,101251.98
2018-06-10T03:38:45.743Z,101253.88
2018-06-10T03:41:14.638Z,101248.84
2018-06-10T03:43:42.377Z,101249.74
2018-06-10T03:46:11.287Z,101241.82
2018-06-10T03:48:39.605Z,101241.89
2018-06-10T03:51:07.913Z,101241.25
2018-06-10T03:53:35.655Z,101245.66
2018-06-10T03:56:04.568Z,101243.48
2018-06-10T03:58:32.938Z,101245.77
2018-06-10T04:01:00.676Z,101246.68
2018-06-10T04:03:29.005Z,101247.58
2018-06-10T04:05:57.907Z,101243.41
2018-06-10T04:08:26.230Z,101237.73
2018-06-10T04:10:54.543Z,101235.12
2018-06-10T04:13:22.873Z,101234.15
2018-06-10T04:15:50.693Z,101234.84
2018-06-10T04:18:18.929Z,101226.41
2018-06-10T04:20:47.829Z,101228.55
2018-06-10T04:23:16.146Z,101229.92
2018-06-10T04:25:44.474Z,101230.12
2018-06-10T04:28:12.789Z,101228.47
2018-06-10T04:30:41.113Z,101229.73
2018-06-10T04:33:08.857Z,101229.77
2018-06-10T04:35:37.763Z,101231.19
2018-06-10T04:38:06.085Z,101224.06
2018-06-10T04:40:34.401Z,101221.00
2018-06-10T04:43:02.721Z,101224.08
2018-06-10T04:45:31.046Z,101220.45
2018-06-10T04:47:59.371Z,101218.96
2018-06-10T04:50:27.106Z,101217.33
2018-06-10T04:52:56.029Z,101220.70
2018-06-10T04:55:23.750Z,101214.98
2018-06-10T04:57:52.662Z,101209.53
2018-06-10T05:00:20.978Z,101213.42
2018-06-10T05:02:49.294Z,101213.45
2018-06-10T05:05:17.036Z,101216.17
2018-06-10T05:07:45.928Z,101212.01
2018-06-10T05:10:14.257Z,101214.92
2018-06-10T05:12:42.587Z,101210.32
2018-06-10T05:15:11.266Z,101208.06
2018-06-10T05:17:39.009Z,101211.55
2018-06-10T05:20:08.014Z,101205.67
2018-06-10T05:22:35.642Z,101206.80
2018-06-10T05:25:03.958Z,101203.77
2018-06-10T05:27:32.853Z,101201.10
2018-06-10T05:30:01.181Z,101197.98
2018-06-10T05:32:29.500Z,101197.86
2018-06-10T05:34:57.244Z,101196.42
2018-06-10T05:37:25.565Z,101194.95
2018-06-10T05:39:53.898Z,101196.20
2018-06-10T05:42:22.801Z,101195.56
2018-06-10T05:44:50.538Z,101197.89
2018-06-10T05:47:18.891Z,101200.64
2018-06-10T05:49:47.744Z,101200.84
2018-06-10T05:52:16.053Z,101202.81
2018-06-10T05:54:44.372Z,101195.16
2018-06-10T05:57:12.702Z,101199.89
2018-06-10T05:59:41.026Z,101196.58
2018-06-10T06:02:09.519Z,101198.38
2018-06-10T06:04:37.284Z,101200.02
2018-06-10T06:07:05.601Z,101203.13
2018-06-10T06:09:34.503Z,101205.12
2018-06-10T06:12:02.829Z,101205.75
2018-06-10T06:14:31.147Z,101204.80
2018-06-10T06:16:59.457Z,101199.39
2018-06-10T06:19:27.425Z,101201.84
2018-06-10T06:21:56.091Z,101194.91
2018-06-10T06:24:23.832Z,101194.23
2018-06-10T06:26:52.736Z,101195.06
2018-06-10T06:29:21.049Z,101190.34
2018-06-10T06:31:49.363Z,101181.26
2018-06-10T06:34:17.708Z,101187.73
2018-06-10T06:36:46.020Z,101178.56
2018-06-10T06:39:14.357Z,101181.15
2018-06-10T06:41:42.114Z,101178.23
2018-06-10T06:44:10.454Z,101175.31
2018-06-10T06:46:39.353Z,101174.47
2018-06-10T06:49:07.671Z,101170.38
2018-06-10T06:51:35.999Z,101169.55
2018-06-10T06:54:04.320Z,101172.09
2018-06-10T06:56:32.640Z,101173.83
2018-06-10T06:59:00.380Z,101176.45
2018-06-10T07:01:29.293Z,101178.50
2018-06-10T07:03:57.805Z,101173.34
2018-06-10T07:06:26.136Z,101172.36
2018-06-10T07:08:54.475Z,101167.94
2018-06-10T07:11:22.257Z,101169.63
2018-06-10T07:13:51.149Z,101161.69
2018-06-10T07:16:19.502Z,101162.80
2018-06-10T07:18:47.815Z,101162.26
2018-06-10T07:21:15.621Z,101155.98
2018-06-10T07:23:43.946Z,101156.48
2018-06-10T07:26:12.206Z,101154.05
2018-06-10T07:28:41.111Z,101156.20
2018-06-10T07:31:09.439Z,101153.06
2018-06-10T07:33:37.802Z,101149.68
2018-06-10T07:36:05.514Z,101153.47
2018-06-10T07:38:33.852Z,101147.98
2018-06-10T07:41:02.761Z,101147.12
2018-06-10T07:43:31.095Z,101146.67
2018-06-10T07:45:59.411Z,101149.63
2018-06-10T07:48:27.783Z,101145.57
2018-06-10T07:50:55.493Z,101151.19
2018-06-10T07:53:24.401Z,101144.53
2018-06-10T07:55:53.576Z,101145.64
2018-06-10T07:58:21.894Z,101146.45
2018-06-10T08:00:50.395Z,101142.48
2018-06-10T08:03:18.730Z,101137.30
2018-06-10T08:05:47.097Z,101133.92
2018-06-10T08:08:16.013Z,101128.83
2018-06-10T08:10:44.339Z,101128.18
2018-06-10T08:13:12.078Z,101128.28
2018-06-10T08:15:44.512Z,101126.32
2018-06-10T08:18:14.063Z,101125.92
2018-06-10T08:20:41.328Z,101127.26
2018-06-10T08:23:09.664Z,101127.12
2018-06-10T08:25:38.000Z,101124.86
2018-06-10T08:28:06.336Z,101119.00
2018-06-10T08:30:34.077Z,101121.14
2018-06-10T08:33:02.989Z,101121.33
2018-06-10T08:35:30.735Z,101117.66
2018-06-10T08:37:59.052Z,101118.72
2018-06-10T08:40:27.463Z,101120.14
2018-06-10T08:42:56.290Z,101123.39
2018-06-10T08:45:24.626Z,101123.89
2018-06-10T08:47:52.939Z,101120.73
2018-06-10T08:50:21.270Z,101116.33
2018-06-10T08:52:49.608Z,101116.34
2018-06-10T08:55:17.947Z,101115.02
2018-06-10T08:57:45.686Z,101117.32
2018-06-10T09:00:14.619Z,101115.76
2018-06-10T09:02:42.431Z,101112.52
2018-06-10T09:05:11.281Z,101110.71
2018-06-10T09:07:39.659Z,101099.33
2018-06-10T09:10:07.987Z,101100.39
2018-06-10T09:12:36.336Z,101105.98
2018-06-10T09:15:04.715Z,101094.05
2018-06-10T09:17:36.598Z,101091.19
2018-06-10T09:20:04.968Z,101087.77
2018-06-10T09:22:33.291Z,101087.02
2018-06-10T09:25:01.621Z,101082.23
2018-06-10T09:27:29.957Z,101083.20
2018-06-10T09:29:57.701Z,101083.11
2018-06-10T09:32:26.606Z,101082.36
2018-06-10T09:34:54.406Z,101078.95
2018-06-10T09:37:23.256Z,101079.19
2018-06-10T09:39:51.636Z,101083.77
2018-06-10T09:42:19.380Z,101077.67
2018-06-10T09:44:48.281Z,101076.70
2018-06-10T09:47:16.601Z,101086.55
2018-06-10T09:49:45.167Z,101076.77
2018-06-10T09:52:12.678Z,101075.13
2018-06-10T09:54:41.650Z,101074.70
2018-06-10T09:57:09.986Z,101073.80
2018-06-10T09:59:38.287Z,101077.95
2018-06-10T10:02:06.608Z,101076.56
2018-06-10T10:04:34.924Z,101072.48
2018-06-10T10:07:03.255Z,101076.07
2018-06-10T10:09:31.052Z,101076.87
2018-06-10T10:12:00.012Z,101072.41
2018-06-10T10:14:28.366Z,101072.17
2018-06-10T10:16:56.685Z,101079.23
2018-06-10T10:19:24.415Z,101069.55
2018-06-10T10:21:53.328Z,101077.51
2018-06-10T10:24:21.713Z,101075.07
2018-06-10T10:26:49.450Z,101073.18
2018-06-10T10:29:17.821Z,101064.53
2018-06-10T10:31:46.764Z,101065.67
2018-06-10T10:34:15.046Z,101065.64
2018-06-10T10:36:43.478Z,101064.75
2018-06-10T10:39:11.801Z,101064.24
2018-06-10T10:41:41.189Z,101064.96
2018-06-10T10:44:08.531Z,101068.53
2018-06-10T10:46:36.861Z,101068.11
2018-06-10T10:49:12.519Z,101071.13
2018-06-10T10:51:40.869Z,101067.06
2018-06-10T10:54:09.178Z,101065.72
2018-06-10T10:56:37.509Z,101065.88
2018-06-10T10:59:05.272Z,101063.89
2018-06-10T11:01:34.193Z,101062.43
2018-06-10T11:04:02.552Z,101058.73
2018-06-10T11:06:30.298Z,101059.64
2018-06-10T11:08:59.223Z,101056.50
2018-06-10T11:11:27.592Z,101052.54
2018-06-10T11:13:55.917Z,101050.40
2018-06-10T11:16:24.265Z,101050.89
2018-06-10T11:18:52.592Z,101053.07
2018-06-10T11:21:20.917Z,101053.89
2018-06-10T11:23:49.242Z,101051.52
2018-06-10T11:26:17.582Z,101053.53
2018-06-10T11:28:45.897Z,101057.57
2018-06-10T11:31:14.240Z,101050.22
2018-06-10T11:33:42.557Z,101052.74
2018-06-10T11:36:10.305Z,101053.58
2018-06-10T11:38:38.658Z,101046.30
2018-06-10T11:41:06.992Z,101038.42
2018-06-10T11:43:35.401Z,101043.87
2018-06-10T11:46:05.907Z,101041.99
2018-06-10T11:48:34.269Z,101037.34
2018-06-10T11:51:03.229Z,101032.60
2018-06-10T11:53:31.629Z,101034.03
2018-06-10T11:56:02.861Z,101032.48
2018-06-10T11:58:29.306Z,101035.62
2018-06-10T12:00:57.780Z,101034.93
2018-06-10T12:03:26.097Z,101026.08
2018-06-10T12:05:54.661Z,101028.44
2018-06-10T12:08:22.750Z,101027.63
2018-06-10T12:10:51.102Z,101028.86
2018-06-10T12:13:19.472Z,101030.03
2018-06-10T12:15:47.794Z,101025.66
2018-06-10T12:18:16.117Z,101019.13
2018-06-10T12:20:44.437Z,101019.45
2018-06-10T12:23:12.791Z,101017.34
2018-06-10T12:25:40.722Z,101020.28
2018-06-10T12:28:09.627Z,101017.88
2018-06-10T12:30:38.094Z,101016.78
2018-06-10T12:33:06.440Z,101006.77
2018-06-10T12:35:34.762Z,101013.00
2018-06-10T12:38:03.092Z,101003.38
2018-06-10T12:40:30.831Z,101001.70
2018-06-10T12:42:59.741Z,100992.17
2018-06-10T12:45:28.061Z,100992.09
2018-06-10T12:47:55.809Z,100984.16
2018-06-10T12:50:24.149Z,100983.34
2018-06-10T12:52:53.071Z,100978.05
2018-06-10T12:55:21.397Z,100976.89
2018-06-10T12:57:49.166Z,100971.25
2018-06-10T13:00:17.484Z,100970.83
2018-06-10T13:02:46.429Z,100967.67
2018-06-10T13:05:14.748Z,100959.72
2018-06-10T13:07:43.070Z,100960.13
2018-06-10T13:10:12.062Z,100952.64
2018-06-10T13:12:40.276Z,100955.63
2018-06-10T13:15:08.746Z,100954.27
2018-06-10T13:17:37.649Z,100956.33
2018-06-10T13:20:05.981Z,100955.31
2018-06-10T13:22:33.728Z,100951.03
2018-06-10T13:25:02.634Z,100950.22
2018-06-10T13:27:30.989Z,100947.52
2018-06-10T13:29:58.763Z,100948.55
2018-06-10T13:32:28.276Z,100946.61
2018-06-10T13:34:55.420Z,100943.34
2018-06-10T13:37:24.321Z,100938.03
2018-06-10T13:39:52.660Z,100943.72
2018-06-10T13:42:20.980Z,100940.17
2018-06-10T13:44:48.773Z,100931.17
2018-06-10T13:47:17.630Z,100931.55
2018-06-10T13:49:45.949Z,100932.95
2018-06-10T13:52:14.283Z,100938.36
2018-06-10T13:54:42.609Z,100930.45
2018-06-10T13:57:10.937Z,100926.65
2018-06-10T13:59:38.691Z,100922.61
2018-06-10T14:02:07.838Z,100919.55
2018-06-10T14:04:35.929Z,100918.09
2018-06-10T14:07:04.250Z,100912.34
2018-06-10T14:09:32.578Z,100910.23
2018-06-10T14:12:00.938Z,100904.73
2018-06-10T14:14:28.685Z,100909.16
2018-06-10T14:16:57.633Z,100908.17
2018-06-10T14:19:25.957Z,100905.93
2018-06-10T14:21:54.283Z,100903.74
2018-06-10T14:24:22.610Z,100901.34
2018-06-10T14:26:50.970Z,100898.63
2018-06-10T14:29:19.266Z,100898.04
2018-06-10T14:31:47.598Z,100893.20
2018-06-10T14:34:16.701Z,100884.70
2018-06-10T14:36:45.270Z,100885.45
2018-06-10T14:39:13.600Z,100876.75
2018-06-10T14:41:41.342Z,100876.99
2018-06-10T14:44:10.490Z,100875.66
2018-06-10T14:46:38.988Z,100875.99
2018-06-10T14:49:07.337Z,100875.11
2018-06-10T14:51:35.662Z,100876.34
2018-06-10T14:54:03.984Z,100869.54
2018-06-10T14:56:32.317Z,100869.61
2018-06-10T14:59:00.637Z,100860.81
2018-06-10T15:01:28.373Z,100860.60
2018-06-10T15:03:57.289Z,100855.72
2018-06-10T15:06:25.182Z,100855.61
2018-06-10T15:08:54.093Z,100848.12
2018-06-10T15:11:21.873Z,100851.92
2018-06-10T15:13:50.741Z,100849.06
2018-06-10T15:16:18.509Z,100844.88
2018-06-10T15:18:47.469Z,100848.38
2018-06-10T15:21:15.782Z,100844.29
2018-06-10T15:23:44.107Z,100839.52
2018-06-10T15:26:12.440Z,100842.67
2018-06-10T15:28:40.176Z,100832.09
2018-06-10T15:31:08.507Z,100829.14
2018-06-10T15:33:37.405Z,100831.69
2018-06-10T15:36:05.153Z,100832.91
2018-06-10T15:38:34.146Z,100833.97
2018-06-10T15:41:02.653Z,100829.22
2018-06-10T15:43:31.009Z,100821.21
2018-06-10T15:45:59.383Z,100821.34
2018-06-10T15:48:27.695Z,100810.43
2018-06-10T15:50:56.019Z,100820.28
2018-06-10T15:53:23.776Z,100813.59
2018-06-10T15:55:54.169Z,100814.81
2018-06-10T15:58:22.528Z,100815.19
2018-06-10T16:00:50.261Z,100816.95
2018-06-10T16:03:19.167Z,100816.59
2018-06-10T16:05:47.486Z,100814.23
2018-06-10T16:08:15.229Z,100816.03
2018-06-10T16:10:44.129Z,100808.36
2018-06-10T16:13:12.453Z,100809.98
2018-06-10T16:15:40.785Z,100807.73
2018-06-10T16:18:09.110Z,100805.36
2018-06-10T16:20:37.495Z,100807.63
2018-06-10T16:23:05.829Z,100813.34
2018-06-10T16:25:34.151Z,100809.25
2018-06-10T16:28:02.477Z,100807.95
2018-06-10T16:30:30.807Z,100808.78
2018-06-10T16:32:59.198Z,100803.56
2018-06-10T16:35:27.522Z,100811.70
2018-06-10T16:37:55.852Z,100815.19
2018-06-10T16:40:24.405Z,100812.53
2018-06-10T16:42:53.544Z,100807.97
2018-06-10T16:45:21.342Z,100810.10
2018-06-10T16:47:50.247Z,100808.39
2018-06-10T16:50:17.992Z,100801.34
2018-06-10T16:52:46.899Z,100797.53
2018-06-10T16:55:15.263Z,100793.89
2018-06-10T16:57:43.646Z,100795.33
2018-06-10T17:00:12.127Z,100793.86
2018-06-10T17:02:40.399Z,100789.91
2018-06-10T17:05:08.722Z,100788.67
2018-06-10T17:07:37.065Z,100784.61
2018-06-10T17:10:04.806Z,100783.80
2018-06-10T17:12:34.119Z,100779.27
2018-06-10T17:15:02.450Z,100779.66
2018-06-10T17:17:30.783Z,100780.76
2018-06-10T17:19:58.537Z,100777.46
2018-06-10T17:22:27.513Z,100780.81
2018-06-10T17:24:55.863Z,100775.15
2018-06-10T17:27:24.442Z,100779.98
2018-06-10T17:29:52.550Z,100782.42
2018-06-10T17:32:20.297Z,100774.43
2018-06-10T17:34:49.204Z,100777.11
2018-06-10T17:37:17.528Z,100779.95
2018-06-10T17:39:45.305Z,100775.96
2018-06-10T17:42:14.236Z,100776.51
2018-06-10T17:44:42.542Z,100777.72
2018-06-10T17:47:10.285Z,100780.22
2018-06-10T17:49:39.017Z,100777.80
2018-06-10T17:52:07.807Z,100775.94
2018-06-10T17:54:36.129Z,100773.05
2018-06-10T17:57:04.595Z,100771.41
2018-06-10T17:59:32.913Z,100768.80
2018-06-10T18:02:00.652Z,100776.14
2018-06-10T18:04:29.552Z,100774.34
2018-06-10T18:06:57.882Z,100777.72
2018-06-10T18:09:26.232Z,100765.38
2018-06-10T18:11:54.560Z,100762.16
2018-06-10T18:14:22.876Z,100764.00
2018-06-10T18:16:51.205Z,100760.08
2018-06-10T18:19:19.548Z,100762.89
2018-06-10T18:21:47.299Z,100757.59
2018-06-10T18:24:16.253Z,100757.44
2018-06-10T18:26:44.498Z,100756.09
2018-06-10T18:29:12.923Z,100754.25
2018-06-10T18:31:41.250Z,100750.92
2018-06-10T18:34:09.579Z,100751.28
2018-06-10T18:36:37.909Z,100744.66
2018-06-10T18:39:06.234Z,100740.20
2018-06-10T18:41:34.563Z,100739.67
2018-06-10T18:44:02.917Z,100740.16
2018-06-10T18:46:31.251Z,100739.42
2018-06-10T18:48:59.606Z,100738.61
2018-06-10T18:51:27.361Z,100731.19
2018-06-10T18:53:55.736Z,100735.77
2018-06-10T18:56:24.631Z,100734.26
2018-06-10T18:58:52.967Z,100731.16
2018-06-10T19:01:20.731Z,100728.05
2018-06-10T19:03:49.211Z,100724.63
2018-06-10T19:06:18.045Z,100715.90
2018-06-10T19:08:46.359Z,100719.45
2018-06-10T19:11:14.696Z,100714.80
2018-06-10T19:13:43.401Z,100718.19
2018-06-10T19:16:11.735Z,100718.63
2018-06-10T19:18:40.052Z,100716.52
2018-06-10T19:21:08.400Z,100718.18
2018-06-10T19:23:36.740Z,100716.38
2018-06-10T19:26:08.259Z,100711.55
2018-06-10T19:28:34.242Z,100715.60
2018-06-10T19:31:02.511Z,100713.67
2018-06-10T19:33:30.917Z,100710.91
2018-06-10T19:35:59.246Z,100707.28
2018-06-10T19:38:27.792Z,100710.14
2018-06-10T19:40:56.169Z,100709.81
2018-06-10T19:43:24.578Z,100712.08
2018-06-10T19:45:52.387Z,100708.77
2018-06-10T19:48:20.665Z,100706.09
2018-06-10T19:50:50.801Z,100706.17
2018-06-10T19:53:19.405Z,100707.97
2018-06-10T19:55:47.580Z,100708.55
2018-06-10T19:58:15.895Z,100708.92
2018-06-10T20:00:43.643Z,100708.26
2018-06-10T20:03:12.608Z,100708.63
2018-06-10T20:05:40.448Z,100704.00
2018-06-10T20:08:09.424Z,100701.30
2018-06-10T20:10:37.218Z,100698.51
2018-06-10T20:13:06.125Z,100701.69
2018-06-10T20:15:34.462Z,100698.23
2018-06-10T20:18:02.835Z,100700.77
2018-06-10T20:20:30.572Z,100698.48
2018-06-10T20:22:58.941Z,100698.03
2018-06-10T20:25:27.841Z,100697.52
2018-06-10T20:27:56.266Z,100691.78
2018-06-10T20:30:24.622Z,100689.59
2018-06-10T20:32:52.628Z,100690.48
2018-06-10T20:35:20.778Z,100686.73
2018-06-10T20:37:49.673Z,100682.67
2018-06-10T20:40:17.999Z,100683.30
2018-06-10T20:42:46.344Z,100679.33
2018-06-10T20:45:14.668Z,100678.36
2018-06-10T20:47:42.415Z,100674.15
2018-06-10T20:50:12.016Z,100665.30
2018-06-10T20:52:40.278Z,100667.08
2018-06-10T20:55:08.609Z,100668.73
2018-06-10T20:57:36.927Z,100664.10
2018-06-10T21:00:05.215Z,100660.76
2018-06-10T21:02:33.603Z,100659.86
2018-06-10T21:05:01.926Z,100661.80
2018-06-10T21:07:30.256Z,100661.71
2018-06-10T21:09:57.996Z,100662.92
2018-06-10T21:12:26.892Z,100659.58
2018-06-10T21:14:55.305Z,100662.68
2018-06-10T21:17:23.665Z,100655.80
2018-06-10T21:19:51.997Z,100659.38
2018-06-10T21:22:20.314Z,100655.64
2018-06-10T21:24:48.641Z,100651.11
2018-06-10T21:27:16.993Z,100654.13
2018-06-10T21:29:45.337Z,100650.82
2018-06-10T21:32:13.669Z,100648.57
2018-06-10T21:34:41.996Z,100649.61
2018-06-10T21:37:10.310Z,100649.44
2018-06-10T21:39:38.642Z,100641.91
2018-06-10T21:42:07.045Z,100638.61
2018-06-10T21:44:35.374Z,100638.02
2018-06-10T21:47:03.114Z,100639.09
2018-06-10T21:49:31.431Z,100641.19
2018-06-10T21:52:00.969Z,100640.44
2018-06-10T21:54:29.290Z,100639.14
2018-06-10T21:56:57.601Z,100635.34
2018-06-10T21:59:25.342Z,100636.55
2018-06-10T22:01:53.673Z,100635.41
2018-06-10T22:04:22.104Z,100633.16
2018-06-10T22:06:50.478Z,100633.79
2018-06-10T22:09:18.794Z,100627.39
2018-06-10T22:11:49.542Z,100626.66
2018-06-10T22:14:17.280Z,100630.72
2018-06-10T22:16:45.609Z,100628.20
2018-06-10T22:19:14.508Z,100632.34
2018-06-10T22:21:42.837Z,100636.39
2018-06-10T22:24:11.156Z,100631.42
2018-06-10T22:26:39.499Z,100627.84
2018-06-10T22:29:07.274Z,100628.27
2018-06-10T22:31:36.206Z,100633.78
2018-06-10T22:34:03.973Z,100634.20
2018-06-10T22:36:32.870Z,100635.39
2018-06-10T22:39:00.630Z,100638.33
2018-06-10T22:41:29.015Z,100639.55
2018-06-10T22:43:57.876Z,100633.37
2018-06-10T22:46:26.198Z,100630.70
2018-06-10T22:48:54.574Z,100627.46
2018-06-10T22:51:22.317Z,100631.22
2018-06-10T22:53:51.228Z,100640.69
2018-06-10T22:56:19.550Z,100648.44
2018-06-10T22:58:47.293Z,100658.90
2018-06-10T23:01:16.212Z,100653.67
2018-06-10T23:03:44.515Z,100652.70
2018-06-10T23:06:12.835Z,100657.48
2018-06-10T23:08:40.578Z,100660.72
2018-06-10T23:11:09.653Z,100670.02
2018-06-10T23:13:37.398Z,100671.94
2018-06-10T23:16:06.562Z,100668.20
2018-06-10T23:18:34.874Z,100666.41
2018-06-10T23:21:03.548Z,100662.45
2018-06-10T23:23:31.857Z,100656.16
2018-06-10T23:26:00.170Z,100663.16
2018-06-10T23:28:27.917Z,100658.50
2018-06-10T23:30:56.815Z,100665.08
2018-06-10T23:33:25.185Z,100668.25
2018-06-10T23:35:53.493Z,100674.66
2018-06-10T23:38:21.809Z,100663.56
2018-06-10T23:40:50.121Z,100665.59
2018-06-10T23:43:18.446Z,100662.42
2018-06-10T23:45:46.750Z,100655.78
2018-06-10T23:48:15.061Z,100657.39
2018-06-10T23:50:43.373Z,100658.04
2018-06-10T23:53:11.690Z,100667.41
2018-06-10T23:55:39.433Z,100668.80
2018-06-10T23:58:08.324Z,100675.43
